sensor_id;sensor_type;location;lat;lon;timestamp;P1;durP1;ratioP1;P2;durP2;ratioP2
63259;SDS011;49390;51.380;0.098;2023-06-19T00:01:30;27.75;;;16.65;;
63259;SDS011;49390;51.380;0.098;2023-06-19T00:04:01;28.00;;;16.90;;
63259;SDS011;49390;51.380;0.098;2023-06-19T00:06:28;29.02;;;17.92;;
63259;SDS011;49390;51.380;0.098;2023-06-19T00:09:01;29.63;;;16.98;;
63259;SDS011;49390;51.380;0.098;2023-06-19T00:11:32;29.23;;;17.80;;
63259;SDS011;49390;51.380;0.098;2023-06-19T00:14:00;26.20;;;16.52;;
63259;SDS011;49390;51.380;0.098;2023-06-19T00:16:28;27.90;;;17.02;;
63259;SDS011;49390;51.380;0.098;2023-06-19T00:18:59;28.83;;;17.37;;
63259;SDS011;49390;51.380;0.098;2023-06-19T00:21:29;29.25;;;16.58;;
63259;SDS011;49390;51.380;0.098;2023-06-19T00:23:57;28.00;;;17.05;;
63259;SDS011;49390;51.380;0.098;2023-06-19T00:26:25;28.27;;;16.40;;
63259;SDS011;49390;51.380;0.098;2023-06-19T00:28:58;29.75;;;17.25;;
63259;SDS011;49390;51.380;0.098;2023-06-19T00:31:30;28.38;;;16.95;;
63259;SDS011;49390;51.380;0.098;2023-06-19T00:34:01;27.95;;;16.35;;
63259;SDS011;49390;51.380;0.098;2023-06-19T00:36:29;28.65;;;16.42;;
63259;SDS011;49390;51.380;0.098;2023-06-19T00:38:59;30.52;;;16.98;;
63259;SDS011;49390;51.380;0.098;2023-06-19T00:41:27;29.20;;;16.75;;
63259;SDS011;49390;51.380;0.098;2023-06-19T00:44:01;29.40;;;15.60;;
63259;SDS011;49390;51.380;0.098;2023-06-19T00:46:29;29.75;;;16.27;;
63259;SDS011;49390;51.380;0.098;2023-06-19T00:48:58;25.95;;;15.63;;
63259;SDS011;49390;51.380;0.098;2023-06-19T00:51:30;28.35;;;15.77;;
63259;SDS011;49390;51.380;0.098;2023-06-19T00:54:01;29.55;;;15.73;;
63259;SDS011;49390;51.380;0.098;2023-06-19T00:56:34;25.92;;;15.38;;
63259;SDS011;49390;51.380;0.098;2023-06-19T00:59:11;29.20;;;15.52;;
63259;SDS011;49390;51.380;0.098;2023-06-19T01:01:46;30.02;;;16.02;;
63259;SDS011;49390;51.380;0.098;2023-06-19T01:04:15;29.52;;;15.85;;
63259;SDS011;49390;51.380;0.098;2023-06-19T01:09:33;29.38;;;15.45;;
63259;SDS011;49390;51.380;0.098;2023-06-19T01:12:15;27.65;;;15.02;;
63259;SDS011;49390;51.380;0.098;2023-06-19T01:14:52;27.30;;;15.30;;
63259;SDS011;49390;51.380;0.098;2023-06-19T01:17:25;26.02;;;14.60;;
63259;SDS011;49390;51.380;0.098;2023-06-19T01:19:57;24.00;;;14.95;;
63259;SDS011;49390;51.380;0.098;2023-06-19T01:22:32;28.08;;;15.48;;
63259;SDS011;49390;51.380;0.098;2023-06-19T01:25:05;28.20;;;15.45;;
63259;SDS011;49390;51.380;0.098;2023-06-19T01:27:36;29.52;;;15.38;;
63259;SDS011;49390;51.380;0.098;2023-06-19T01:30:09;28.13;;;14.82;;
63259;SDS011;49390;51.380;0.098;2023-06-19T01:35:17;23.50;;;14.57;;
63259;SDS011;49390;51.380;0.098;2023-06-19T01:37:47;23.50;;;14.48;;
63259;SDS011;49390;51.380;0.098;2023-06-19T01:40:18;28.67;;;14.80;;
63259;SDS011;49390;51.380;0.098;2023-06-19T01:42:56;27.63;;;14.02;;
63259;SDS011;49390;51.380;0.098;2023-06-19T01:45:29;26.95;;;14.48;;
63259;SDS011;49390;51.380;0.098;2023-06-19T01:47:59;25.95;;;14.00;;
63259;SDS011;49390;51.380;0.098;2023-06-19T01:50:32;26.65;;;13.98;;
63259;SDS011;49390;51.380;0.098;2023-06-19T01:53:02;28.33;;;13.80;;
63259;SDS011;49390;51.380;0.098;2023-06-19T01:55:35;24.88;;;14.80;;
63259;SDS011;49390;51.380;0.098;2023-06-19T01:58:08;24.63;;;14.10;;
63259;SDS011;49390;51.380;0.098;2023-06-19T02:00:36;22.88;;;13.20;;
63259;SDS011;49390;51.380;0.098;2023-06-19T02:03:07;25.88;;;14.48;;
63259;SDS011;49390;51.380;0.098;2023-06-19T02:05:35;25.38;;;14.60;;
63259;SDS011;49390;51.380;0.098;2023-06-19T02:10:36;20.63;;;12.13;;
63259;SDS011;49390;51.380;0.098;2023-06-19T02:13:09;21.48;;;11.85;;
63259;SDS011;49390;51.380;0.098;2023-06-19T02:15:37;21.20;;;12.45;;
63259;SDS011;49390;51.380;0.098;2023-06-19T02:18:09;22.38;;;12.93;;
63259;SDS011;49390;51.380;0.098;2023-06-19T02:20:39;21.42;;;13.73;;
63259;SDS011;49390;51.380;0.098;2023-06-19T02:23:07;22.67;;;12.38;;
63259;SDS011;49390;51.380;0.098;2023-06-19T02:25:38;25.55;;;12.70;;
63259;SDS011;49390;51.380;0.098;2023-06-19T02:28:06;22.33;;;12.32;;
63259;SDS011;49390;51.380;0.098;2023-06-19T02:30:39;24.48;;;12.65;;
63259;SDS011;49390;51.380;0.098;2023-06-19T02:33:09;21.70;;;12.35;;
63259;SDS011;49390;51.380;0.098;2023-06-19T02:35:40;23.98;;;12.20;;
63259;SDS011;49390;51.380;0.098;2023-06-19T02:38:14;20.23;;;11.05;;
63259;SDS011;49390;51.380;0.098;2023-06-19T02:40:44;18.55;;;10.98;;
63259;SDS011;49390;51.380;0.098;2023-06-19T02:43:12;18.42;;;10.93;;
63259;SDS011;49390;51.380;0.098;2023-06-19T02:45:44;20.48;;;10.32;;
63259;SDS011;49390;51.380;0.098;2023-06-19T02:48:14;20.98;;;11.13;;
63259;SDS011;49390;51.380;0.098;2023-06-19T02:50:43;17.67;;;10.45;;
63259;SDS011;49390;51.380;0.098;2023-06-19T02:53:13;19.05;;;10.55;;
63259;SDS011;49390;51.380;0.098;2023-06-19T02:55:50;17.48;;;10.13;;
63259;SDS011;49390;51.380;0.098;2023-06-19T02:58:23;15.13;;;8.73;;
63259;SDS011;49390;51.380;0.098;2023-06-19T03:00:55;17.25;;;9.13;;
63259;SDS011;49390;51.380;0.098;2023-06-19T03:03:26;15.77;;;8.57;;
63259;SDS011;49390;51.380;0.098;2023-06-19T03:05:57;14.60;;;8.60;;
63259;SDS011;49390;51.380;0.098;2023-06-19T03:08:28;14.35;;;8.50;;
63259;SDS011;49390;51.380;0.098;2023-06-19T03:11:01;15.30;;;8.13;;
63259;SDS011;49390;51.380;0.098;2023-06-19T03:13:46;14.73;;;7.97;;
63259;SDS011;49390;51.380;0.098;2023-06-19T03:16:15;14.77;;;7.85;;
63259;SDS011;49390;51.380;0.098;2023-06-19T03:18:46;13.35;;;7.80;;
63259;SDS011;49390;51.380;0.098;2023-06-19T03:21:19;13.70;;;7.43;;
63259;SDS011;49390;51.380;0.098;2023-06-19T03:23:51;12.65;;;7.13;;
63259;SDS011;49390;51.380;0.098;2023-06-19T03:26:25;14.48;;;7.25;;
63259;SDS011;49390;51.380;0.098;2023-06-19T03:28:58;17.20;;;8.25;;
63259;SDS011;49390;51.380;0.098;2023-06-19T03:31:36;16.05;;;8.43;;
63259;SDS011;49390;51.380;0.098;2023-06-19T03:34:10;17.20;;;9.05;;
63259;SDS011;49390;51.380;0.098;2023-06-19T03:36:41;15.85;;;9.13;;
63259;SDS011;49390;51.380;0.098;2023-06-19T03:39:13;20.27;;;10.25;;
63259;SDS011;49390;51.380;0.098;2023-06-19T03:41:43;21.23;;;11.20;;
63259;SDS011;49390;51.380;0.098;2023-06-19T03:44:11;17.35;;;10.13;;
63259;SDS011;49390;51.380;0.098;2023-06-19T03:46:41;20.67;;;10.60;;
63259;SDS011;49390;51.380;0.098;2023-06-19T03:49:12;20.92;;;11.07;;
63259;SDS011;49390;51.380;0.098;2023-06-19T03:51:40;19.00;;;10.75;;
63259;SDS011;49390;51.380;0.098;2023-06-19T03:54:08;21.20;;;11.57;;
63259;SDS011;49390;51.380;0.098;2023-06-19T03:56:36;22.17;;;11.27;;
63259;SDS011;49390;51.380;0.098;2023-06-19T03:59:05;22.73;;;11.95;;
63259;SDS011;49390;51.380;0.098;2023-06-19T04:01:36;24.58;;;11.57;;
63259;SDS011;49390;51.380;0.098;2023-06-19T04:04:13;23.80;;;12.77;;
63259;SDS011;49390;51.380;0.098;2023-06-19T04:06:46;24.38;;;12.57;;
63259;SDS011;49390;51.380;0.098;2023-06-19T04:09:19;24.08;;;12.82;;
63259;SDS011;49390;51.380;0.098;2023-06-19T04:11:47;23.88;;;12.63;;
63259;SDS011;49390;51.380;0.098;2023-06-19T04:14:18;26.40;;;13.00;;
63259;SDS011;49390;51.380;0.098;2023-06-19T04:16:52;21.70;;;11.80;;
63259;SDS011;49390;51.380;0.098;2023-06-19T04:19:20;24.05;;;12.85;;
63259;SDS011;49390;51.380;0.098;2023-06-19T04:21:50;24.33;;;12.57;;
63259;SDS011;49390;51.380;0.098;2023-06-19T04:24:18;23.23;;;12.18;;
63259;SDS011;49390;51.380;0.098;2023-06-19T04:26:51;23.73;;;12.68;;
63259;SDS011;49390;51.380;0.098;2023-06-19T04:29:20;26.65;;;13.82;;
63259;SDS011;49390;51.380;0.098;2023-06-19T04:31:54;24.30;;;13.45;;
63259;SDS011;49390;51.380;0.098;2023-06-19T04:34:28;22.90;;;12.45;;
63259;SDS011;49390;51.380;0.098;2023-06-19T04:37:01;24.98;;;12.75;;
63259;SDS011;49390;51.380;0.098;2023-06-19T04:39:29;24.58;;;12.88;;
63259;SDS011;49390;51.380;0.098;2023-06-19T04:41:57;23.38;;;12.15;;
63259;SDS011;49390;51.380;0.098;2023-06-19T04:46:48;24.05;;;12.15;;
63259;SDS011;49390;51.380;0.098;2023-06-19T04:49:16;21.17;;;12.57;;
63259;SDS011;49390;51.380;0.098;2023-06-19T04:51:49;24.02;;;12.77;;
63259;SDS011;49390;51.380;0.098;2023-06-19T04:54:19;23.33;;;12.32;;
63259;SDS011;49390;51.380;0.098;2023-06-19T04:56:49;23.95;;;12.10;;
63259;SDS011;49390;51.380;0.098;2023-06-19T04:59:19;24.85;;;12.35;;
63259;SDS011;49390;51.380;0.098;2023-06-19T05:01:50;24.23;;;11.73;;
63259;SDS011;49390;51.380;0.098;2023-06-19T05:04:21;22.85;;;11.80;;
63259;SDS011;49390;51.380;0.098;2023-06-19T05:06:49;23.75;;;12.40;;
63259;SDS011;49390;51.380;0.098;2023-06-19T05:09:22;24.35;;;12.63;;
63259;SDS011;49390;51.380;0.098;2023-06-19T05:11:52;25.57;;;12.87;;
63259;SDS011;49390;51.380;0.098;2023-06-19T05:14:23;26.58;;;13.52;;
63259;SDS011;49390;51.380;0.098;2023-06-19T05:16:55;24.23;;;12.50;;
63259;SDS011;49390;51.380;0.098;2023-06-19T05:19:29;27.30;;;13.02;;
63259;SDS011;49390;51.380;0.098;2023-06-19T05:21:59;24.42;;;12.27;;
63259;SDS011;49390;51.380;0.098;2023-06-19T05:24:29;24.05;;;13.27;;
63259;SDS011;49390;51.380;0.098;2023-06-19T05:26:59;26.60;;;13.10;;
63259;SDS011;49390;51.380;0.098;2023-06-19T05:29:27;28.33;;;14.18;;
63259;SDS011;49390;51.380;0.098;2023-06-19T05:31:59;25.85;;;13.73;;
63259;SDS011;49390;51.380;0.098;2023-06-19T05:34:29;26.27;;;13.23;;
63259;SDS011;49390;51.380;0.098;2023-06-19T05:36:59;28.45;;;13.15;;
63259;SDS011;49390;51.380;0.098;2023-06-19T05:39:31;25.60;;;12.23;;
63259;SDS011;49390;51.380;0.098;2023-06-19T05:42:01;25.05;;;12.88;;
63259;SDS011;49390;51.380;0.098;2023-06-19T05:44:29;24.95;;;12.60;;
63259;SDS011;49390;51.380;0.098;2023-06-19T05:46:57;27.08;;;12.52;;
63259;SDS011;49390;51.380;0.098;2023-06-19T05:49:27;25.42;;;12.65;;
63259;SDS011;49390;51.380;0.098;2023-06-19T05:51:57;27.02;;;13.45;;
63259;SDS011;49390;51.380;0.098;2023-06-19T05:54:26;25.38;;;13.20;;
63259;SDS011;49390;51.380;0.098;2023-06-19T05:56:54;25.25;;;12.77;;
63259;SDS011;49390;51.380;0.098;2023-06-19T05:59:22;25.35;;;13.20;;
63259;SDS011;49390;51.380;0.098;2023-06-19T06:01:57;25.27;;;13.25;;
63259;SDS011;49390;51.380;0.098;2023-06-19T06:04:25;22.77;;;12.32;;
63259;SDS011;49390;51.380;0.098;2023-06-19T06:06:55;21.98;;;12.40;;
63259;SDS011;49390;51.380;0.098;2023-06-19T06:09:27;23.05;;;11.80;;
63259;SDS011;49390;51.380;0.098;2023-06-19T06:11:55;21.42;;;12.10;;
63259;SDS011;49390;51.380;0.098;2023-06-19T06:14:26;22.98;;;12.20;;
63259;SDS011;49390;51.380;0.098;2023-06-19T06:16:59;23.10;;;12.40;;
63259;SDS011;49390;51.380;0.098;2023-06-19T06:19:30;21.58;;;11.93;;
63259;SDS011;49390;51.380;0.098;2023-06-19T06:21:59;20.27;;;11.20;;
63259;SDS011;49390;51.380;0.098;2023-06-19T06:24:30;19.33;;;11.70;;
63259;SDS011;49390;51.380;0.098;2023-06-19T06:26:58;21.02;;;11.10;;
63259;SDS011;49390;51.380;0.098;2023-06-19T06:29:33;18.92;;;10.43;;
63259;SDS011;49390;51.380;0.098;2023-06-19T06:32:04;19.30;;;9.98;;
63259;SDS011;49390;51.380;0.098;2023-06-19T06:34:39;19.80;;;11.02;;
63259;SDS011;49390;51.380;0.098;2023-06-19T06:37:09;18.00;;;10.30;;
63259;SDS011;49390;51.380;0.098;2023-06-19T06:39:37;17.42;;;10.50;;
63259;SDS011;49390;51.380;0.098;2023-06-19T06:42:05;16.35;;;9.13;;
63259;SDS011;49390;51.380;0.098;2023-06-19T06:44:34;17.88;;;9.73;;
63259;SDS011;49390;51.380;0.098;2023-06-19T06:47:07;17.80;;;9.63;;
63259;SDS011;49390;51.380;0.098;2023-06-19T06:49:40;16.52;;;9.48;;
63259;SDS011;49390;51.380;0.098;2023-06-19T06:52:12;15.55;;;9.32;;
63259;SDS011;49390;51.380;0.098;2023-06-19T06:54:43;17.40;;;9.93;;
63259;SDS011;49390;51.380;0.098;2023-06-19T06:57:11;16.88;;;9.90;;
63259;SDS011;49390;51.380;0.098;2023-06-19T06:59:43;15.18;;;9.02;;
63259;SDS011;49390;51.380;0.098;2023-06-19T07:02:14;13.68;;;9.68;;
63259;SDS011;49390;51.380;0.098;2023-06-19T07:04:47;16.40;;;9.57;;
63259;SDS011;49390;51.380;0.098;2023-06-19T07:07:20;12.45;;;8.32;;
63259;SDS011;49390;51.380;0.098;2023-06-19T07:09:52;15.02;;;8.25;;
63259;SDS011;49390;51.380;0.098;2023-06-19T07:12:22;13.77;;;8.55;;
63259;SDS011;49390;51.380;0.098;2023-06-19T07:14:53;14.27;;;8.10;;
63259;SDS011;49390;51.380;0.098;2023-06-19T07:17:26;13.07;;;8.05;;
63259;SDS011;49390;51.380;0.098;2023-06-19T07:19:57;12.98;;;8.43;;
63259;SDS011;49390;51.380;0.098;2023-06-19T07:22:27;13.00;;;7.82;;
63259;SDS011;49390;51.380;0.098;2023-06-19T07:25:00;15.63;;;8.20;;
63259;SDS011;49390;51.380;0.098;2023-06-19T07:27:33;11.60;;;7.85;;
63259;SDS011;49390;51.380;0.098;2023-06-19T07:30:06;14.13;;;7.78;;
63259;SDS011;49390;51.380;0.098;2023-06-19T07:32:41;14.48;;;8.07;;
63259;SDS011;49390;51.380;0.098;2023-06-19T07:35:10;11.60;;;7.18;;
63259;SDS011;49390;51.380;0.098;2023-06-19T07:37:40;10.50;;;7.53;;
63259;SDS011;49390;51.380;0.098;2023-06-19T07:40:08;11.85;;;7.10;;
63259;SDS011;49390;51.380;0.098;2023-06-19T07:42:46;14.88;;;7.13;;
63259;SDS011;49390;51.380;0.098;2023-06-19T07:45:19;12.88;;;7.57;;
63259;SDS011;49390;51.380;0.098;2023-06-19T07:47:55;11.93;;;7.10;;
63259;SDS011;49390;51.380;0.098;2023-06-19T07:50:29;12.20;;;6.47;;
63259;SDS011;49390;51.380;0.098;2023-06-19T07:53:00;12.02;;;6.60;;
63259;SDS011;49390;51.380;0.098;2023-06-19T07:55:31;10.88;;;6.50;;
63259;SDS011;49390;51.380;0.098;2023-06-19T07:57:59;10.63;;;6.60;;
63259;SDS011;49390;51.380;0.098;2023-06-19T08:00:29;10.77;;;6.20;;
63259;SDS011;49390;51.380;0.098;2023-06-19T08:02:57;10.68;;;6.28;;
63259;SDS011;49390;51.380;0.098;2023-06-19T08:05:28;10.60;;;6.13;;
63259;SDS011;49390;51.380;0.098;2023-06-19T08:07:56;8.35;;;5.95;;
63259;SDS011;49390;51.380;0.098;2023-06-19T08:10:27;11.75;;;5.80;;
63259;SDS011;49390;51.380;0.098;2023-06-19T08:13:01;9.93;;;6.25;;
63259;SDS011;49390;51.380;0.098;2023-06-19T08:15:31;8.65;;;5.90;;
63259;SDS011;49390;51.380;0.098;2023-06-19T08:18:01;10.00;;;6.47;;
63259;SDS011;49390;51.380;0.098;2023-06-19T08:20:36;10.95;;;6.13;;
63259;SDS011;49390;51.380;0.098;2023-06-19T08:23:08;9.98;;;5.50;;
63259;SDS011;49390;51.380;0.098;2023-06-19T08:25:36;9.82;;;5.43;;
63259;SDS011;49390;51.380;0.098;2023-06-19T08:28:06;9.03;;;5.57;;
63259;SDS011;49390;51.380;0.098;2023-06-19T08:30:37;11.27;;;5.35;;
63259;SDS011;49390;51.380;0.098;2023-06-19T08:33:08;9.30;;;5.25;;
63259;SDS011;49390;51.380;0.098;2023-06-19T08:35:38;7.50;;;4.53;;
63259;SDS011;49390;51.380;0.098;2023-06-19T08:38:08;8.57;;;5.10;;
63259;SDS011;49390;51.380;0.098;2023-06-19T08:40:36;9.38;;;5.00;;
63259;SDS011;49390;51.380;0.098;2023-06-19T08:43:06;7.78;;;4.78;;
63259;SDS011;49390;51.380;0.098;2023-06-19T08:45:34;9.55;;;5.90;;
63259;SDS011;49390;51.380;0.098;2023-06-19T08:48:07;9.25;;;5.10;;
63259;SDS011;49390;51.380;0.098;2023-06-19T08:50:40;11.98;;;5.55;;
63259;SDS011;49390;51.380;0.098;2023-06-19T08:53:09;8.45;;;5.28;;
63259;SDS011;49390;51.380;0.098;2023-06-19T08:55:41;10.52;;;5.63;;
63259;SDS011;49390;51.380;0.098;2023-06-19T08:58:10;7.03;;;4.90;;
63259;SDS011;49390;51.380;0.098;2023-06-19T09:00:40;8.68;;;5.03;;
63259;SDS011;49390;51.380;0.098;2023-06-19T09:03:19;9.30;;;5.75;;
63259;SDS011;49390;51.380;0.098;2023-06-19T09:05:51;8.35;;;5.10;;
63259;SDS011;49390;51.380;0.098;2023-06-19T09:08:22;10.80;;;5.57;;
63259;SDS011;49390;51.380;0.098;2023-06-19T09:10:54;8.52;;;5.20;;
63259;SDS011;49390;51.380;0.098;2023-06-19T09:13:33;8.55;;;4.90;;
63259;SDS011;49390;51.380;0.098;2023-06-19T09:16:03;9.98;;;5.47;;
63259;SDS011;49390;51.380;0.098;2023-06-19T09:18:45;8.10;;;4.93;;
63259;SDS011;49390;51.380;0.098;2023-06-19T09:21:21;8.93;;;4.88;;
63259;SDS011;49390;51.380;0.098;2023-06-19T09:23:54;8.32;;;5.05;;
63259;SDS011;49390;51.380;0.098;2023-06-19T09:26:33;10.38;;;5.45;;
63259;SDS011;49390;51.380;0.098;2023-06-19T09:29:12;11.77;;;6.45;;
63259;SDS011;49390;51.380;0.098;2023-06-19T09:31:47;14.93;;;7.07;;
63259;SDS011;49390;51.380;0.098;2023-06-19T09:34:18;15.63;;;7.40;;
63259;SDS011;49390;51.380;0.098;2023-06-19T09:36:46;13.75;;;6.38;;
63259;SDS011;49390;51.380;0.098;2023-06-19T09:39:14;13.25;;;6.22;;
63259;SDS011;49390;51.380;0.098;2023-06-19T09:41:44;12.82;;;6.90;;
63259;SDS011;49390;51.380;0.098;2023-06-19T09:44:21;10.95;;;5.93;;
63259;SDS011;49390;51.380;0.098;2023-06-19T09:46:52;9.52;;;5.75;;
63259;SDS011;49390;51.380;0.098;2023-06-19T09:49:22;10.43;;;5.10;;
63259;SDS011;49390;51.380;0.098;2023-06-19T09:51:55;13.23;;;5.80;;
63259;SDS011;49390;51.380;0.098;2023-06-19T09:54:23;10.90;;;5.43;;
63259;SDS011;49390;51.380;0.098;2023-06-19T09:56:58;9.23;;;5.47;;
63259;SDS011;49390;51.380;0.098;2023-06-19T09:59:30;9.07;;;5.72;;
63259;SDS011;49390;51.380;0.098;2023-06-19T10:01:59;9.40;;;5.10;;
63259;SDS011;49390;51.380;0.098;2023-06-19T10:04:30;8.88;;;5.00;;
63259;SDS011;49390;51.380;0.098;2023-06-19T10:10:03;9.45;;;5.13;;
63259;SDS011;49390;51.380;0.098;2023-06-19T10:15:19;14.10;;;6.35;;
63259;SDS011;49390;51.380;0.098;2023-06-19T10:18:03;23.02;;;6.88;;
63259;SDS011;49390;51.380;0.098;2023-06-19T10:20:36;11.45;;;6.50;;
63259;SDS011;49390;51.380;0.098;2023-06-19T10:28:25;22.65;;;9.48;;
63259;SDS011;49390;51.380;0.098;2023-06-19T10:33:37;8.52;;;5.15;;
63259;SDS011;49390;51.380;0.098;2023-06-19T10:36:15;12.75;;;5.22;;
63259;SDS011;49390;51.380;0.098;2023-06-19T10:38:48;12.50;;;5.32;;
63259;SDS011;49390;51.380;0.098;2023-06-19T10:41:23;9.88;;;4.20;;
63259;SDS011;49390;51.380;0.098;2023-06-19T10:43:58;7.45;;;4.60;;
63259;SDS011;49390;51.380;0.098;2023-06-19T10:46:29;10.00;;;5.50;;
63259;SDS011;49390;51.380;0.098;2023-06-19T10:49:06;9.30;;;5.13;;
63259;SDS011;49390;51.380;0.098;2023-06-19T10:51:37;14.05;;;6.53;;
63259;SDS011;49390;51.380;0.098;2023-06-19T10:54:06;7.95;;;4.57;;
63259;SDS011;49390;51.380;0.098;2023-06-19T10:56:39;7.80;;;4.45;;
63259;SDS011;49390;51.380;0.098;2023-06-19T10:59:16;7.10;;;4.15;;
63259;SDS011;49390;51.380;0.098;2023-06-19T11:01:45;7.65;;;3.90;;
63259;SDS011;49390;51.380;0.098;2023-06-19T11:04:15;8.85;;;4.35;;
63259;SDS011;49390;51.380;0.098;2023-06-19T11:06:46;8.18;;;4.50;;
63259;SDS011;49390;51.380;0.098;2023-06-19T11:09:16;8.13;;;4.38;;
63259;SDS011;49390;51.380;0.098;2023-06-19T11:11:49;8.18;;;4.28;;
63259;SDS011;49390;51.380;0.098;2023-06-19T11:14:17;8.27;;;4.20;;
63259;SDS011;49390;51.380;0.098;2023-06-19T11:16:47;8.00;;;3.72;;
63259;SDS011;49390;51.380;0.098;2023-06-19T11:19:19;8.05;;;4.28;;
63259;SDS011;49390;51.380;0.098;2023-06-19T11:21:49;8.85;;;4.32;;
63259;SDS011;49390;51.380;0.098;2023-06-19T11:24:19;47.97;;;9.82;;
63259;SDS011;49390;51.380;0.098;2023-06-19T11:26:49;9.77;;;5.00;;
63259;SDS011;49390;51.380;0.098;2023-06-19T11:29:25;6.88;;;3.72;;
63259;SDS011;49390;51.380;0.098;2023-06-19T11:32:08;8.43;;;4.28;;
63259;SDS011;49390;51.380;0.098;2023-06-19T11:34:40;9.02;;;4.47;;
63259;SDS011;49390;51.380;0.098;2023-06-19T11:39:48;7.22;;;4.20;;
63259;SDS011;49390;51.380;0.098;2023-06-19T11:42:17;6.65;;;4.25;;
63259;SDS011;49390;51.380;0.098;2023-06-19T11:47:25;7.80;;;4.05;;
63259;SDS011;49390;51.380;0.098;2023-06-19T11:49:56;9.88;;;4.43;;
63259;SDS011;49390;51.380;0.098;2023-06-19T11:54:45;7.47;;;4.55;;
63259;SDS011;49390;51.380;0.098;2023-06-19T11:57:16;8.40;;;4.47;;
63259;SDS011;49390;51.380;0.098;2023-06-19T11:59:46;7.30;;;3.90;;
63259;SDS011;49390;51.380;0.098;2023-06-19T12:02:18;6.65;;;4.40;;
63259;SDS011;49390;51.380;0.098;2023-06-19T12:04:47;7.32;;;4.53;;
63259;SDS011;49390;51.380;0.098;2023-06-19T12:07:15;7.65;;;4.30;;
63259;SDS011;49390;51.380;0.098;2023-06-19T12:09:43;6.93;;;4.07;;
63259;SDS011;49390;51.380;0.098;2023-06-19T12:12:12;7.78;;;4.18;;
63259;SDS011;49390;51.380;0.098;2023-06-19T12:14:41;6.90;;;4.45;;
63259;SDS011;49390;51.380;0.098;2023-06-19T12:17:17;9.35;;;4.15;;
63259;SDS011;49390;51.380;0.098;2023-06-19T12:19:58;6.85;;;4.47;;
63259;SDS011;49390;51.380;0.098;2023-06-19T12:22:26;8.25;;;4.47;;
63259;SDS011;49390;51.380;0.098;2023-06-19T12:24:56;6.32;;;4.00;;
63259;SDS011;49390;51.380;0.098;2023-06-19T12:27:24;7.18;;;3.78;;
63259;SDS011;49390;51.380;0.098;2023-06-19T12:29:53;5.85;;;3.53;;
63259;SDS011;49390;51.380;0.098;2023-06-19T12:32:21;6.93;;;3.80;;
63259;SDS011;49390;51.380;0.098;2023-06-19T12:34:52;6.72;;;3.95;;
63259;SDS011;49390;51.380;0.098;2023-06-19T12:37:21;6.15;;;3.30;;
63259;SDS011;49390;51.380;0.098;2023-06-19T12:39:51;5.40;;;3.25;;
63259;SDS011;49390;51.380;0.098;2023-06-19T12:42:20;7.97;;;3.55;;
63259;SDS011;49390;51.380;0.098;2023-06-19T12:44:48;5.07;;;3.25;;
63259;SDS011;49390;51.380;0.098;2023-06-19T12:47:16;5.95;;;3.10;;
63259;SDS011;49390;51.380;0.098;2023-06-19T12:49:45;6.05;;;3.03;;
63259;SDS011;49390;51.380;0.098;2023-06-19T12:52:16;6.35;;;3.40;;
63259;SDS011;49390;51.380;0.098;2023-06-19T12:54:44;6.40;;;3.33;;
63259;SDS011;49390;51.380;0.098;2023-06-19T12:57:14;5.70;;;3.03;;
63259;SDS011;49390;51.380;0.098;2023-06-19T12:59:46;5.95;;;3.10;;
63259;SDS011;49390;51.380;0.098;2023-06-19T13:02:15;6.25;;;3.30;;
63259;SDS011;49390;51.380;0.098;2023-06-19T13:04:43;6.63;;;3.05;;
63259;SDS011;49390;51.380;0.098;2023-06-19T13:07:14;4.80;;;2.95;;
63259;SDS011;49390;51.380;0.098;2023-06-19T13:09:46;6.07;;;2.92;;
63259;SDS011;49390;51.380;0.098;2023-06-19T13:12:17;6.03;;;3.00;;
63259;SDS011;49390;51.380;0.098;2023-06-19T13:14:47;5.18;;;3.30;;
63259;SDS011;49390;51.380;0.098;2023-06-19T13:17:18;6.05;;;3.13;;
63259;SDS011;49390;51.380;0.098;2023-06-19T13:19:46;6.15;;;3.28;;
63259;SDS011;49390;51.380;0.098;2023-06-19T13:22:14;6.22;;;3.20;;
63259;SDS011;49390;51.380;0.098;2023-06-19T13:24:42;7.18;;;3.63;;
63259;SDS011;49390;51.380;0.098;2023-06-19T13:27:15;5.25;;;2.80;;
63259;SDS011;49390;51.380;0.098;2023-06-19T13:29:44;6.53;;;3.10;;
63259;SDS011;49390;51.380;0.098;2023-06-19T13:32:14;8.00;;;3.13;;
63259;SDS011;49390;51.380;0.098;2023-06-19T13:34:46;4.78;;;2.90;;
63259;SDS011;49390;51.380;0.098;2023-06-19T13:37:20;5.40;;;2.97;;
63259;SDS011;49390;51.380;0.098;2023-06-19T13:39:50;7.13;;;3.75;;
63259;SDS011;49390;51.380;0.098;2023-06-19T13:42:19;8.35;;;3.53;;
63259;SDS011;49390;51.380;0.098;2023-06-19T13:44:49;8.57;;;3.65;;
63259;SDS011;49390;51.380;0.098;2023-06-19T13:47:21;5.50;;;3.10;;
63259;SDS011;49390;51.380;0.098;2023-06-19T13:49:52;6.57;;;3.40;;
63259;SDS011;49390;51.380;0.098;2023-06-19T13:52:23;5.45;;;3.13;;
63259;SDS011;49390;51.380;0.098;2023-06-19T13:54:51;6.38;;;3.05;;
63259;SDS011;49390;51.380;0.098;2023-06-19T13:57:24;5.22;;;3.03;;
63259;SDS011;49390;51.380;0.098;2023-06-19T13:59:52;5.25;;;3.25;;
63259;SDS011;49390;51.380;0.098;2023-06-19T14:02:23;6.80;;;3.30;;
63259;SDS011;49390;51.380;0.098;2023-06-19T14:04:56;6.35;;;3.28;;
63259;SDS011;49390;51.380;0.098;2023-06-19T14:07:26;6.10;;;3.10;;
63259;SDS011;49390;51.380;0.098;2023-06-19T14:09:55;6.00;;;3.15;;
63259;SDS011;49390;51.380;0.098;2023-06-19T14:12:25;5.50;;;3.20;;
63259;SDS011;49390;51.380;0.098;2023-06-19T14:14:53;5.55;;;3.15;;
63259;SDS011;49390;51.380;0.098;2023-06-19T14:17:26;5.95;;;2.83;;
63259;SDS011;49390;51.380;0.098;2023-06-19T14:19:54;6.18;;;3.35;;
63259;SDS011;49390;51.380;0.098;2023-06-19T14:22:27;5.85;;;3.22;;
63259;SDS011;49390;51.380;0.098;2023-06-19T14:24:55;6.05;;;3.30;;
63259;SDS011;49390;51.380;0.098;2023-06-19T14:27:29;5.53;;;3.35;;
63259;SDS011;49390;51.380;0.098;2023-06-19T14:30:01;7.13;;;3.20;;
63259;SDS011;49390;51.380;0.098;2023-06-19T14:32:30;6.15;;;2.90;;
63259;SDS011;49390;51.380;0.098;2023-06-19T14:34:58;5.82;;;3.00;;
63259;SDS011;49390;51.380;0.098;2023-06-19T14:37:32;8.18;;;3.35;;
63259;SDS011;49390;51.380;0.098;2023-06-19T14:40:02;6.47;;;3.55;;
63259;SDS011;49390;51.380;0.098;2023-06-19T14:42:34;6.18;;;3.63;;
63259;SDS011;49390;51.380;0.098;2023-06-19T14:45:02;7.28;;;3.22;;
63259;SDS011;49390;51.380;0.098;2023-06-19T14:47:31;7.80;;;3.50;;
63259;SDS011;49390;51.380;0.098;2023-06-19T14:49:59;6.70;;;3.38;;
63259;SDS011;49390;51.380;0.098;2023-06-19T14:52:31;8.48;;;3.15;;
63259;SDS011;49390;51.380;0.098;2023-06-19T14:55:02;6.75;;;3.40;;
63259;SDS011;49390;51.380;0.098;2023-06-19T14:57:31;7.65;;;3.33;;
63259;SDS011;49390;51.380;0.098;2023-06-19T14:59:59;6.03;;;3.53;;
63259;SDS011;49390;51.380;0.098;2023-06-19T15:02:28;7.55;;;3.60;;
63259;SDS011;49390;51.380;0.098;2023-06-19T15:04:59;7.00;;;3.30;;
63259;SDS011;49390;51.380;0.098;2023-06-19T15:07:36;6.13;;;3.30;;
63259;SDS011;49390;51.380;0.098;2023-06-19T15:10:05;5.78;;;3.35;;
63259;SDS011;49390;51.380;0.098;2023-06-19T15:12:39;6.45;;;3.13;;
63259;SDS011;49390;51.380;0.098;2023-06-19T15:15:14;6.30;;;3.20;;
63259;SDS011;49390;51.380;0.098;2023-06-19T15:17:48;7.40;;;3.08;;
63259;SDS011;49390;51.380;0.098;2023-06-19T15:20:18;6.57;;;3.35;;
63259;SDS011;49390;51.380;0.098;2023-06-19T15:22:48;5.57;;;3.05;;
63259;SDS011;49390;51.380;0.098;2023-06-19T15:25:16;5.13;;;2.92;;
63259;SDS011;49390;51.380;0.098;2023-06-19T15:27:52;7.15;;;3.17;;
63259;SDS011;49390;51.380;0.098;2023-06-19T15:30:22;5.90;;;3.30;;